Tallahassee, FL

11:28 AM EDT on October 25, 2014 (GMT -0400)
Rickards High School WeatherSTEM | Change Station
CLOSE
Current Station
Personal Weather Station
Location: Tallahassee, FL
Elevation: 138 ft
Nearby Weather Stations

Elev 138 ft 30.41 °N, 84.26 °W | Updated 1 minute ago

Clear
Clear
71.0 °F
Feels Like 77 °F
N
2.0
Wind Variable Wind from NE
Gusts 5.0 mph

Today
High -- | Low -- °F
--% Chance of Precip.
Yesterday
High -- | Low -- °F
Precip. -- in
7:46 AM 6:55 PM
Waxing Crescent, 3% visible
Pressure 30.06 in
Visibility 10.0 miles
Clouds Clear
Heat Index 77 °F
Dew Point 53 °F
Humidity 53%
Rainfall 0.00 in
Snow Depth Not available.
UV 4.4 out of 12
Pollen 4.20 out of 12
Air Quality Not available.
Flu Activity Local Activity
METAR KTLH 251453Z 02005KT 10SM CLR 21/09 A3006 RMK AO2 SLP178 T02110089 50010 $

More Conditions Fewer Conditions

Pressure 30.06 in
Visibility 10.0 miles
Clouds Clear
Heat Index 77 °F
Dew Point 53 °F
Humidity 53%
Rainfall 0.00 in
Snow Depth Not available.
UV 4.4 out of 12
Pollen 4.20 out of 12
Air Quality Not available.
Flu Activity Local Activity
METAR KTLH 251453Z 02005KT 10SM CLR 21/09 A3006 RMK AO2 SLP178 T02110089 50010 $

More Conditions Fewer Conditions

10-Day Weather Forecast

Almanac

Astronomy

Oct. 25, 2014 Rise Set
Actual Time 7:46 AM EDT 6:55 PM EDT
Civil Twilight 7:21 AM EDT 7:20 PM EDT
Nautical Twilight 6:53 AM EDT 7:48 PM EDT
Astronomical Twilight 6:25 AM EDT 8:16 PM EDT
Moon 9:19 AM EDT 8:23 PM EDT
Length of Visible Light 11h 58m
Length of Day
11h 09m
Tomorrow will be 1m 41s shorter.
Waxing Crescent, 3% of the Moon is Illuminated
Today
Waxing Crescent
Oct 30
First Quarter
Nov 6
Full
Nov 14
Last Quarter
Nov 22
New

Today's Extremes

State Highs State Lows

Community

WunderPhotos

Upload Photos

1,764,876 photos uploaded!

Nearby

Snow Depth

Station Depth Elevation
No new snow has been reported.

Earthquake Activity

City Distance Mag. Time & Date
No recent earthquake activity has been reported nearby.
Minimum magnitude displayed is 2.5.

Coastal Water Temperatures

Place Temperature
Apalachicola, FL 70.0 °F
Panama City, FL 72.0 °F

Nearby Weather Stations